Time,TemperatureF,DewpointF,PressureIn,WindDirection,WindDirectionDegrees,WindSpeedMPH,WindSpeedGustMPH,Humidity,HourlyPrecipIn,Conditions,Clouds,dailyrainin,SoftwareType,DateUTC
2013-08-19 00:57:00,70.3,58.6,29.33,SE,135,1.8,1.8,66,0.00,,,0.00,WUHU21623XXSP,2013-08-19 05:57:00,
2013-08-19 01:57:00,68.9,57.7,29.33,SSE,158,0.0,0.0,67,0.00,,,0.00,WUHU21623XXSP,2013-08-19 06:57:00,
2013-08-19 02:57:00,67.6,57.2,29.32,SE,135,0.0,0.0,69,0.00,,,0.00,WUHU21623XXSP,2013-08-19 07:57:00,
2013-08-19 03:57:00,66.6,56.7,29.33,SSE,158,0.0,0.0,70,0.00,,,0.00,WUHU21623XXSP,2013-08-19 08:57:00,
2013-08-19 04:57:00,65.8,56.7,29.32,SSE,158,0.0,0.0,72,0.00,,,0.00,WUHU21623XXSP,2013-08-19 09:57:00,
2013-08-19 05:30:00,65.3,56.0,29.33,SSE,157,0.0,0.0,72,0.00,,,0.00,WUHU21623XXSP,2013-08-19 10:30:00,
2013-08-19 05:35:00,65.3,56.0,29.33,SSE,157,0.0,0.0,73,0.00,,,0.00,WUHU21623XXSP,2013-08-19 10:35:00,
2013-08-19 05:40:00,65.3,56.4,29.33,SSE,157,0.0,0.0,73,0.00,,,0.00,WUHU21623XXSP,2013-08-19 10:40:00,
2013-08-19 05:45:00,65.1,56.2,29.34,SSE,157,0.0,0.0,73,0.00,,,0.00,WUHU21623XXSP,2013-08-19 10:45:00,
2013-08-19 05:50:00,65.1,56.2,29.34,SSE,157,0.0,0.0,73,0.00,,,0.00,WUHU21623XXSP,2013-08-19 10:50:00,
2013-08-19 05:55:00,65.1,56.2,29.34,SSE,157,0.0,0.0,73,0.00,,,0.00,WUHU21623XXSP,2013-08-19 10:55:00,
2013-08-19 06:00:00,65.1,56.2,29.34,SSE,157,0.0,0.4,73,0.00,,,0.00,WUHU21623XXSP,2013-08-19 11:00:00,
2013-08-19 06:05:00,64.9,56.1,29.34,SSE,157,0.9,0.9,73,0.00,,,0.00,WUHU21623XXSP,2013-08-19 11:05:00,
2013-08-19 06:10:00,64.9,56.1,29.34,SE,135,0.9,0.9,73,0.00,,,0.00,WUHU21623XXSP,2013-08-19 11:10:00,
2013-08-19 06:15:00,64.9,56.4,29.34,SE,135,0.0,0.9,74,0.00,,,0.00,WUHU21623XXSP,2013-08-19 11:15:00,
2013-08-19 06:20:00,64.9,56.4,29.34,SSE,157,0.0,0.0,74,0.00,,,0.00,WUHU21623XXSP,2013-08-19 11:20:00,
2013-08-19 06:25:00,64.9,56.4,29.34,SSE,157,0.0,0.9,74,0.00,,,0.00,WUHU21623XXSP,2013-08-19 11:25:00,
2013-08-19 06:30:00,64.9,56.4,29.34,SSE,157,0.0,0.9,74,0.00,,,0.00,WUHU21623XXSP,2013-08-19 11:30:00,
2013-08-19 06:35:00,64.9,56.4,29.34,SSE,157,0.0,0.9,74,0.00,,,0.00,WUHU21623XXSP,2013-08-19 11:35:00,
2013-08-19 06:40:00,64.9,56.4,29.35,SE,135,0.0,0.7,74,0.00,,,0.00,WUHU21623XXSP,2013-08-19 11:40:00,
2013-08-19 06:45:00,64.9,56.4,29.35,SSE,157,0.0,0.7,74,0.00,,,0.00,WUHU21623XXSP,2013-08-19 11:45:00,
2013-08-19 06:50:00,64.9,56.4,29.35,SSE,157,0.9,0.9,74,0.00,,,0.00,WUHU21623XXSP,2013-08-19 11:50:00,
2013-08-19 06:55:00,65.1,56.6,29.35,SSE,157,0.0,0.9,74,0.00,,,0.00,WUHU21623XXSP,2013-08-19 11:55:00,
2013-08-19 07:00:00,65.1,56.6,29.35,SSE,157,0.0,0.0,74,0.00,,,0.00,WUHU21623XXSP,2013-08-19 12:00:00,
2013-08-19 07:05:00,65.1,56.6,29.35,SSE,157,1.6,1.6,74,0.00,,,0.00,WUHU21623XXSP,2013-08-19 12:05:00,
2013-08-19 07:10:00,65.3,56.8,29.35,SSE,157,0.0,1.6,74,0.00,,,0.00,WUHU21623XXSP,2013-08-19 12:10:00,
2013-08-19 07:15:00,65.5,56.9,29.35,SSE,157,1.6,1.6,74,0.00,,,0.00,WUHU21623XXSP,2013-08-19 12:15:00,
2013-08-19 07:20:00,65.5,56.9,29.35,SSE,157,0.0,1.6,74,0.00,,,0.00,WUHU21623XXSP,2013-08-19 12:20:00,
2013-08-19 07:25:00,65.8,57.3,29.35,SSE,157,0.0,0.7,74,0.00,,,0.00,WUHU21623XXSP,2013-08-19 12:25:00,
2013-08-19 07:30:00,66.0,57.5,29.35,SSE,157,0.0,0.7,74,0.00,,,0.00,WUHU21623XXSP,2013-08-19 12:30:00,
2013-08-19 07:35:00,66.0,57.5,29.35,SSE,157,0.0,0.7,75,0.00,,,0.00,WUHU21623XXSP,2013-08-19 12:35:00,
2013-08-19 07:40:00,66.6,58.4,29.35,SE,135,0.0,0.4,75,0.00,,,0.00,WUHU21623XXSP,2013-08-19 12:40:00,
2013-08-19 07:45:00,66.7,58.2,29.35,SE,135,0.0,0.4,74,0.00,,,0.00,WUHU21623XXSP,2013-08-19 12:45:00,
2013-08-19 07:50:00,66.9,58.7,29.35,SE,135,0.0,0.0,75,0.00,,,0.00,WUHU21623XXSP,2013-08-19 12:50:00,
2013-08-19 07:55:00,67.3,58.7,29.35,SE,135,0.0,0.0,74,0.00,,,0.00,WUHU21623XXSP,2013-08-19 12:55:00,
2013-08-19 08:00:00,67.6,59.1,29.35,SSW,202,0.0,0.0,74,0.00,,,0.00,WUHU21623XXSP,2013-08-19 13:00:00,
2013-08-19 08:05:00,67.8,59.3,29.35,SSW,202,0.0,0.0,74,0.00,,,0.00,WUHU21623XXSP,2013-08-19 13:05:00,
2013-08-19 08:10:00,68.2,59.6,29.35,SW,225,1.1,1.1,74,0.00,,,0.00,WUHU21623XXSP,2013-08-19 13:10:00,
2013-08-19 08:15:00,68.5,59.9,29.35,West,270,0.0,2.0,74,0.00,,,0.00,WUHU21623XXSP,2013-08-19 13:15:00,
2013-08-19 08:20:00,68.7,60.1,29.35,SW,225,0.0,2.0,74,0.00,,,0.00,WUHU21623XXSP,2013-08-19 13:20:00,
2013-08-19 08:25:00,68.9,60.2,29.36,SW,225,1.6,1.6,74,0.00,,,0.00,WUHU21623XXSP,2013-08-19 13:25:00,
2013-08-19 08:30:00,69.1,60.4,29.36,WSW,247,0.0,1.6,74,0.00,,,0.00,WUHU21623XXSP,2013-08-19 13:30:00,
2013-08-19 08:35:00,69.1,60.4,29.36,WSW,247,0.0,0.4,74,0.00,,,0.00,WUHU21623XXSP,2013-08-19 13:35:00,
2013-08-19 08:40:00,69.4,60.7,29.36,West,270,0.0,0.0,74,0.00,,,0.00,WUHU21623XXSP,2013-08-19 13:40:00,
2013-08-19 08:45:00,69.6,60.9,29.35,WSW,247,0.0,0.0,74,0.00,,,0.00,WUHU21623XXSP,2013-08-19 13:45:00,
2013-08-19 08:50:00,70.0,61.2,29.36,SW,225,0.0,0.0,74,0.00,,,0.00,WUHU21623XXSP,2013-08-19 13:50:00,
2013-08-19 08:55:00,70.3,61.6,29.36,WSW,247,0.4,0.4,74,0.00,,,0.00,WUHU21623XXSP,2013-08-19 13:55:00,
2013-08-19 09:00:00,70.7,61.8,29.36,WSW,247,0.0,0.4,74,0.00,,,0.00,WUHU21623XXSP,2013-08-19 14:00:00,
2013-08-19 09:05:00,70.9,62.1,29.36,SW,225,1.8,1.8,74,0.00,,,0.00,WUHU21623XXSP,2013-08-19 14:05:00,
2013-08-19 09:10:00,71.2,62.5,29.36,WSW,247,0.0,3.1,74,0.00,,,0.00,WUHU21623XXSP,2013-08-19 14:10:00,
2013-08-19 09:15:00,71.4,62.3,29.36,West,270,0.0,3.1,73,0.00,,,0.00,WUHU21623XXSP,2013-08-19 14:15:00,
2013-08-19 09:20:00,71.8,62.7,29.35,SW,225,3.1,3.1,73,0.00,,,0.00,WUHU21623XXSP,2013-08-19 14:20:00,
2013-08-19 09:25:00,72.3,63.2,29.36,SW,225,2.2,3.1,73,0.00,,,0.00,WUHU21623XXSP,2013-08-19 14:25:00,
2013-08-19 09:30:00,72.5,63.0,29.36,SSW,202,5.4,5.4,72,0.00,,,0.00,WUHU21623XXSP,2013-08-19 14:30:00,
2013-08-19 09:35:00,72.9,63.2,29.36,West,270,0.0,5.4,72,0.00,,,0.00,WUHU21623XXSP,2013-08-19 14:35:00,
2013-08-19 09:40:00,73.4,63.9,29.36,West,270,0.7,2.5,72,0.00,,,0.00,WUHU21623XXSP,2013-08-19 14:40:00,
2013-08-19 09:45:00,73.9,64.0,29.36,WSW,247,2.9,2.9,71,0.00,,,0.00,WUHU21623XXSP,2013-08-19 14:45:00,
2013-08-19 09:50:00,74.1,64.2,29.36,West,270,2.9,2.9,71,0.00,,,0.00,WUHU21623XXSP,2013-08-19 14:50:00,
2013-08-19 09:55:00,74.5,64.1,29.36,WSW,247,1.3,2.9,70,0.00,,,0.00,WUHU21623XXSP,2013-08-19 14:55:00,
2013-08-19 10:00:00,75.0,64.4,29.36,West,270,1.6,2.9,70,0.00,,,0.00,WUHU21623XXSP,2013-08-19 15:00:00,
2013-08-19 10:05:00,75.2,64.3,29.36,West,270,0.0,1.6,69,0.00,,,0.00,WUHU21623XXSP,2013-08-19 15:05:00,
2013-08-19 10:10:00,75.9,65.0,29.36,SSW,202,0.9,1.6,69,0.00,,,0.00,WUHU21623XXSP,2013-08-19 15:10:00,
2013-08-19 10:15:00,76.3,64.9,29.36,SW,225,2.7,2.7,68,0.00,,,0.00,WUHU21623XXSP,2013-08-19 15:15:00,
2013-08-19 10:20:00,76.8,65.0,29.36,West,270,2.2,2.7,67,0.00,,,0.00,WUHU21623XXSP,2013-08-19 15:20:00,
2013-08-19 10:25:00,77.2,65.4,29.35,West,270,3.4,3.4,67,0.00,,,0.00,WUHU21623XXSP,2013-08-19 15:25:00,
2013-08-19 10:30:00,77.5,65.7,29.35,West,270,1.8,3.4,67,0.00,,,0.00,WUHU21623XXSP,2013-08-19 15:30:00,
2013-08-19 10:35:00,78.1,65.8,29.35,WSW,247,1.1,4.5,66,0.00,,,0.00,WUHU21623XXSP,2013-08-19 15:35:00,
2013-08-19 10:40:00,78.6,65.8,29.35,WSW,247,1.1,7.2,65,0.00,,,0.00,WUHU21623XXSP,2013-08-19 15:40:00,
2013-08-19 10:45:00,78.6,65.8,29.35,WSW,247,2.2,7.2,65,0.00,,,0.00,WUHU21623XXSP,2013-08-19 15:45:00,
2013-08-19 10:50:00,79.2,66.4,29.35,WSW,247,0.9,2.2,65,0.00,,,0.00,WUHU21623XXSP,2013-08-19 15:50:00,
2013-08-19 10:55:00,79.5,66.3,29.34,SW,225,2.9,2.9,64,0.00,,,0.00,WUHU21623XXSP,2013-08-19 15:55:00,
2013-08-19 11:00:00,79.7,66.0,29.34,West,270,1.6,2.9,63,0.00,,,0.00,WUHU21623XXSP,2013-08-19 16:00:00,
2013-08-19 11:05:00,79.7,66.0,29.34,SW,225,2.7,3.1,63,0.00,,,0.00,WUHU21623XXSP,2013-08-19 16:05:00,
2013-08-19 11:10:00,79.9,66.6,29.34,West,270,0.7,3.1,64,0.00,,,0.00,WUHU21623XXSP,2013-08-19 16:10:00,
2013-08-19 11:15:00,80.2,66.9,29.33,WSW,247,4.5,4.5,64,0.00,,,0.00,WUHU21623XXSP,2013-08-19 16:15:00,
2013-08-19 11:20:00,80.8,66.5,29.34,West,270,2.9,4.5,62,0.00,,,0.00,WUHU21623XXSP,2013-08-19 16:20:00,
2013-08-19 11:21:00,80.8,66.5,29.34,West,270,2.9,4.5,62,0.00,,,0.00,WUHU21623XXSP,2013-08-19 16:21:00,
2013-08-19 11:22:00,81.0,66.7,29.33,West,270,2.0,4.5,62,0.00,,,0.00,WUHU21623XXSP,2013-08-19 16:22:00,
2013-08-19 11:33:00,81.1,66.4,29.33,West,270,1.6,3.1,61,0.00,,,0.00,WUHU21623XXSP,2013-08-19 16:33:00,
2013-08-19 11:37:00,82.6,67.3,29.34,WSW,247,3.6,3.6,60,0.00,,,0.00,WUHU21623XXSP,2013-08-19 16:37:00,
2013-08-19 11:39:00,82.8,66.9,29.35,WSW,247,3.1,3.6,59,0.00,,,0.00,WUHU21623XXSP,2013-08-19 16:39:00,
2013-08-19 11:41:00,82.9,66.9,29.34,WSW,247,3.1,3.6,59,0.00,,,0.00,WUHU21623XXSP,2013-08-19 16:41:00,
2013-08-19 11:44:00,83.1,66.8,29.34,West,270,2.0,3.6,58,0.00,,,0.00,WUHU21623XXSP,2013-08-19 16:44:00,
2013-08-19 11:46:00,83.1,66.8,29.34,SSE,157,2.7,3.6,58,0.00,,,0.00,WUHU21623XXSP,2013-08-19 16:46:00,
2013-08-19 11:48:00,83.1,67.3,29.34,West,270,0.7,3.1,59,0.00,,,0.00,WUHU21623XXSP,2013-08-19 16:48:00,
2013-08-19 11:50:00,83.3,67.3,29.34,West,270,0.7,3.1,58,0.00,,,0.00,WUHU21623XXSP,2013-08-19 16:50:00,
2013-08-19 11:52:00,83.5,67.1,29.34,West,270,0.2,2.7,58,0.00,,,0.00,WUHU21623XXSP,2013-08-19 16:52:00,
2013-08-19 11:54:00,83.5,67.1,29.34,West,270,1.6,2.7,58,0.00,,,0.00,WUHU21623XXSP,2013-08-19 16:54:00,
2013-08-19 11:56:00,83.5,67.1,29.34,West,270,1.6,1.6,58,0.00,,,0.00,WUHU21623XXSP,2013-08-19 16:56:00,
2013-08-19 11:59:00,83.8,66.5,29.34,West,270,2.2,2.2,56,0.00,,,0.00,WUHU21623XXSP,2013-08-19 16:59:00,
2013-08-19 12:01:00,83.8,66.5,29.33,SW,225,0.0,2.2,56,0.00,,,0.00,WUHU21623XXSP,2013-08-19 17:01:00,
2013-08-19 12:03:00,83.8,66.5,29.34,SW,225,4.3,4.3,56,0.00,,,0.00,WUHU21623XXSP,2013-08-19 17:03:00,
2013-08-19 12:05:00,84.0,66.6,29.34,WSW,247,4.9,4.9,56,0.00,,,0.00,WUHU21623XXSP,2013-08-19 17:05:00,
2013-08-19 12:07:00,84.0,66.6,29.34,WSW,247,4.9,4.9,55,0.00,,,0.00,WUHU21623XXSP,2013-08-19 17:07:00,
2013-08-19 12:09:00,84.0,66.1,29.33,SW,225,0.7,4.9,55,0.00,,,0.00,WUHU21623XXSP,2013-08-19 17:09:00,
2013-08-19 12:11:00,84.2,66.3,29.34,SW,225,2.2,4.9,55,0.00,,,0.00,WUHU21623XXSP,2013-08-19 17:11:00,
2013-08-19 12:14:00,84.2,66.3,29.33,WSW,247,3.1,4.9,55,0.00,,,0.00,WUHU21623XXSP,2013-08-19 17:14:00,
2013-08-19 12:16:00,84.2,66.3,29.33,SSW,202,0.7,4.9,55,0.00,,,0.00,WUHU21623XXSP,2013-08-19 17:16:00,
2013-08-19 12:18:00,84.4,66.5,29.33,West,270,2.0,3.1,55,0.00,,,0.00,WUHU21623XXSP,2013-08-19 17:18:00,
2013-08-19 12:20:00,84.4,66.5,29.33,WSW,247,0.9,3.1,55,0.00,,,0.00,WUHU21623XXSP,2013-08-19 17:20:00,
2013-08-19 12:22:00,84.6,66.1,29.33,West,270,2.7,3.1,54,0.00,,,0.00,WUHU21623XXSP,2013-08-19 17:22:00,
2013-08-19 12:24:00,84.6,66.1,29.33,West,270,1.3,2.7,54,0.00,,,0.00,WUHU21623XXSP,2013-08-19 17:24:00,
2013-08-19 12:27:00,84.7,66.3,29.33,SW,225,2.7,2.7,54,0.00,,,0.00,WUHU21623XXSP,2013-08-19 17:27:00,
2013-08-19 12:29:00,84.7,66.3,29.33,SSW,202,0.0,2.7,54,0.00,,,0.00,WUHU21623XXSP,2013-08-19 17:29:00,
2013-08-19 12:31:00,84.9,66.9,29.33,WSW,247,0.9,2.7,55,0.00,,,0.00,WUHU21623XXSP,2013-08-19 17:31:00,
2013-08-19 12:33:00,84.9,66.9,29.33,SSE,157,3.6,3.6,55,0.00,,,0.00,WUHU21623XXSP,2013-08-19 17:33:00,
2013-08-19 12:35:00,85.3,66.7,29.32,West,270,2.5,3.6,54,0.00,,,0.00,WUHU21623XXSP,2013-08-19 17:35:00,
2013-08-19 12:37:00,85.5,66.9,29.32,SSE,157,2.7,3.6,54,0.00,,,0.00,WUHU21623XXSP,2013-08-19 17:37:00,
2013-08-19 12:39:00,85.8,67.2,29.33,SE,135,5.6,5.6,54,0.00,,,0.00,WUHU21623XXSP,2013-08-19 17:39:00,
2013-08-19 12:51:00,86.5,66.3,29.32,WSW,247,2.5,6.0,51,0.00,,,0.00,WUHU21623XXSP,2013-08-19 17:51:00,
2013-08-19 12:56:00,86.5,66.8,29.32,SE,135,6.5,6.5,52,0.00,,,0.00,WUHU21623XXSP,2013-08-19 17:56:00,
2013-08-19 13:01:00,86.5,66.8,29.32,West,270,0.0,6.5,52,0.00,,,0.00,WUHU21623XXSP,2013-08-19 18:01:00,
2013-08-19 13:06:00,86.5,66.8,29.32,WNW,292,1.8,3.4,52,0.00,,,0.00,WUHU21623XXSP,2013-08-19 18:06:00,
2013-08-19 13:11:00,86.2,66.5,29.32,West,270,1.3,4.0,52,0.00,,,0.00,WUHU21623XXSP,2013-08-19 18:11:00,
2013-08-19 13:16:00,85.8,66.7,29.32,South,180,1.8,4.0,53,0.00,,,0.00,WUHU21623XXSP,2013-08-19 18:16:00,
2013-08-19 13:21:00,85.8,66.7,29.32,West,270,0.9,2.2,53,0.00,,,0.00,WUHU21623XXSP,2013-08-19 18:21:00,
2013-08-19 13:26:00,85.6,66.5,29.32,WSW,247,3.1,3.1,53,0.00,,,0.00,WUHU21623XXSP,2013-08-19 18:26:00,
2013-08-19 13:31:00,85.8,66.2,29.32,WNW,292,6.7,6.7,52,0.00,,,0.00,WUHU21623XXSP,2013-08-19 18:31:00,
2013-08-19 13:36:00,86.2,66.5,29.32,West,270,1.3,6.7,52,0.00,,,0.00,WUHU21623XXSP,2013-08-19 18:36:00,
2013-08-19 13:41:00,86.4,66.1,29.32,WSW,247,0.7,6.7,51,0.00,,,0.00,WUHU21623XXSP,2013-08-19 18:41:00,
2013-08-19 13:46:00,86.5,66.3,29.32,SSW,202,1.3,6.3,51,0.00,,,0.00,WUHU21623XXSP,2013-08-19 18:46:00,
2013-08-19 13:51:00,86.7,66.5,29.31,West,270,0.0,6.3,51,0.00,,,0.00,WUHU21623XXSP,2013-08-19 18:51:00,
2013-08-19 13:56:00,86.4,66.1,29.31,SE,135,2.7,3.1,51,0.00,,,0.00,WUHU21623XXSP,2013-08-19 18:56:00,
2013-08-19 14:01:00,86.2,66.0,29.31,ESE,112,0.0,2.9,51,0.00,,,0.00,WUHU21623XXSP,2013-08-19 19:01:00,
2013-08-19 14:06:00,86.2,66.5,29.31,SW,225,4.7,4.7,52,0.00,,,0.00,WUHU21623XXSP,2013-08-19 19:06:00,
2013-08-19 14:11:00,86.5,66.3,29.31,ESE,112,6.0,6.0,51,0.00,,,0.00,WUHU21623XXSP,2013-08-19 19:11:00,
2013-08-19 14:16:00,87.1,66.3,29.31,West,270,0.0,6.0,50,0.00,,,0.00,WUHU21623XXSP,2013-08-19 19:16:00,
2013-08-19 14:21:00,86.9,66.6,29.30,WSW,247,0.7,3.1,51,0.00,,,0.00,WUHU21623XXSP,2013-08-19 19:21:00,
2013-08-19 14:26:00,86.7,66.1,29.30,West,270,2.5,2.5,50,0.00,,,0.00,WUHU21623XXSP,2013-08-19 19:26:00,
2013-08-19 14:31:00,86.5,66.3,29.30,West,270,1.1,2.5,51,0.00,,,0.00,WUHU21623XXSP,2013-08-19 19:31:00,
2013-08-19 14:36:00,86.2,66.0,29.30,SW,225,0.4,1.8,51,0.00,,,0.00,WUHU21623XXSP,2013-08-19 19:36:00,
2013-08-19 14:41:00,85.8,65.7,29.30,West,270,2.7,2.7,51,0.00,,,0.00,WUHU21623XXSP,2013-08-19 19:41:00,
2013-08-19 14:46:00,85.3,65.2,29.30,SW,225,0.0,2.7,51,0.00,,,0.00,WUHU21623XXSP,2013-08-19 19:46:00,
2013-08-19 14:51:00,85.6,65.3,29.30,WSW,247,3.4,3.4,52,0.00,,,0.00,WUHU21623XXSP,2013-08-19 19:51:00,
2013-08-19 14:56:00,85.6,65.5,29.30,SSE,157,6.0,6.0,51,0.00,,,0.00,WUHU21623XXSP,2013-08-19 19:56:00,
2013-08-19 15:01:00,86.0,65.8,29.29,WSW,247,2.5,6.0,51,0.00,,,0.00,WUHU21623XXSP,2013-08-19 20:01:00,
2013-08-19 15:06:00,85.8,65.1,29.29,South,180,1.1,3.1,50,0.00,,,0.00,WUHU21623XXSP,2013-08-19 20:06:00,
2013-08-19 15:11:00,86.0,65.8,29.29,West,270,1.1,2.5,51,0.00,,,0.00,WUHU21623XXSP,2013-08-19 20:11:00,
2013-08-19 15:16:00,86.2,66.0,29.29,SE,135,2.7,2.7,51,0.00,,,0.00,WUHU21623XXSP,2013-08-19 20:16:00,
2013-08-19 15:21:00,86.2,66.0,29.29,SSE,157,0.0,2.7,51,0.00,,,0.00,WUHU21623XXSP,2013-08-19 20:21:00,
2013-08-19 15:26:00,86.4,66.0,29.29,SSE,157,0.0,0.0,51,0.00,,,0.00,WUHU21623XXSP,2013-08-19 20:26:00,
2013-08-19 15:31:00,86.2,66.0,29.29,SSE,157,0.0,0.0,50,0.00,,,0.00,WUHU21623XXSP,2013-08-19 20:31:00,
2013-08-19 15:36:00,86.2,66.0,29.28,SW,225,2.7,2.7,51,0.00,,,0.00,WUHU21623XXSP,2013-08-19 20:36:00,
2013-08-19 15:41:00,86.2,65.8,29.28,SW,225,2.7,2.7,51,0.00,,,0.00,WUHU21623XXSP,2013-08-19 20:41:00,
2013-08-19 15:46:00,86.7,66.5,29.28,SSW,202,0.0,2.7,51,0.00,,,0.00,WUHU21623XXSP,2013-08-19 20:46:00,
2013-08-19 15:51:00,87.3,66.4,29.28,West,270,2.0,2.7,50,0.00,,,0.00,WUHU21623XXSP,2013-08-19 20:51:00,
2013-08-19 15:56:00,87.6,66.8,29.28,West,270,0.7,2.0,50,0.00,,,0.00,WUHU21623XXSP,2013-08-19 20:56:00,
2013-08-19 16:01:00,88.0,67.1,29.28,West,270,2.0,2.7,50,0.00,,,0.00,WUHU21623XXSP,2013-08-19 21:01:00,
2013-08-19 16:06:00,87.8,66.9,29.28,SE,135,0.0,2.7,50,0.00,,,0.00,WUHU21623XXSP,2013-08-19 21:06:00,
2013-08-19 16:11:00,87.6,66.8,29.28,SE,135,0.0,2.2,50,0.00,,,0.00,WUHU21623XXSP,2013-08-19 21:11:00,
2013-08-19 16:16:00,86.9,66.3,29.28,SSE,157,0.0,0.0,50,0.00,,,0.00,WUHU21623XXSP,2013-08-19 21:16:00,
2013-08-19 16:21:00,86.5,66.3,29.28,South,180,0.0,0.7,51,0.00,,,0.00,WUHU21623XXSP,2013-08-19 21:21:00,
2013-08-19 16:26:00,86.2,66.1,29.28,SSE,157,2.0,2.0,51,0.00,,,0.00,WUHU21623XXSP,2013-08-19 21:26:00,
2013-08-19 16:31:00,86.2,66.0,29.28,West,270,2.9,2.9,51,0.00,,,0.00,WUHU21623XXSP,2013-08-19 21:31:00,
2013-08-19 16:36:00,86.0,65.8,29.28,WSW,247,2.7,7.4,51,0.00,,,0.00,WUHU21623XXSP,2013-08-19 21:36:00,
2013-08-19 16:41:00,85.8,65.8,29.28,SE,135,1.1,7.4,51,0.00,,,0.00,WUHU21623XXSP,2013-08-19 21:41:00,
2013-08-19 16:46:00,86.2,66.5,29.28,WSW,247,2.5,2.5,52,0.00,,,0.00,WUHU21623XXSP,2013-08-19 21:46:00,
2013-08-19 16:51:00,86.4,66.5,29.28,West,270,2.9,2.9,51,0.00,,,0.00,WUHU21623XXSP,2013-08-19 21:51:00,
2013-08-19 16:56:00,86.4,66.7,29.28,WSW,247,0.0,2.9,52,0.00,,,0.00,WUHU21623XXSP,2013-08-19 21:56:00,
2013-08-19 17:01:00,86.2,66.0,29.28,SW,225,2.0,2.0,51,0.00,,,0.00,WUHU21623XXSP,2013-08-19 22:01:00,
2013-08-19 17:06:00,85.8,65.7,29.28,SSW,202,0.0,2.0,51,0.00,,,0.00,WUHU21623XXSP,2013-08-19 22:06:00,
2013-08-19 17:11:00,85.8,65.5,29.28,South,180,0.0,1.1,52,0.00,,,0.00,WUHU21623XXSP,2013-08-19 22:11:00,
2013-08-19 17:16:00,86.2,66.5,29.28,West,270,0.7,0.7,52,0.00,,,0.00,WUHU21623XXSP,2013-08-19 22:16:00,
2013-08-19 17:21:00,86.2,66.5,29.28,SE,135,1.6,1.6,52,0.00,,,0.00,WUHU21623XXSP,2013-08-19 22:21:00,
2013-08-19 17:26:00,86.2,66.5,29.28,West,270,1.8,1.8,52,0.00,,,0.00,WUHU21623XXSP,2013-08-19 22:26:00,
2013-08-19 17:31:00,85.8,66.2,29.28,WSW,247,0.0,1.8,52,0.00,,,0.00,WUHU21623XXSP,2013-08-19 22:31:00,
2013-08-19 17:36:00,85.8,66.2,29.28,SW,225,0.0,1.8,52,0.00,,,0.00,WUHU21623XXSP,2013-08-19 22:36:00,
2013-08-19 17:41:00,85.6,66.0,29.28,West,270,1.6,1.6,52,0.00,,,0.00,WUHU21623XXSP,2013-08-19 22:41:00,
2013-08-19 17:46:00,85.3,65.7,29.28,West,270,0.0,1.6,52,0.00,,,0.00,WUHU21623XXSP,2013-08-19 22:46:00,
2013-08-19 17:51:00,85.1,66.2,29.28,West,270,0.0,0.2,53,0.00,,,0.00,WUHU21623XXSP,2013-08-19 22:51:00,
2013-08-19 17:56:00,84.9,65.9,29.27,West,270,0.0,1.1,53,0.00,,,0.00,WUHU21623XXSP,2013-08-19 22:56:00,
2013-08-19 18:01:00,84.9,66.4,29.27,South,180,2.0,2.0,54,0.00,,,0.00,WUHU21623XXSP,2013-08-19 23:01:00,
2013-08-19 18:06:00,84.9,66.4,29.27,WSW,247,0.0,2.0,54,0.00,,,0.00,WUHU21623XXSP,2013-08-19 23:06:00,
2013-08-19 18:11:00,85.3,66.7,29.27,SSE,157,2.7,2.7,54,0.00,,,0.00,WUHU21623XXSP,2013-08-19 23:11:00,
2013-08-19 18:16:00,85.3,66.7,29.27,SE,135,4.3,4.3,54,0.00,,,0.00,WUHU21623XXSP,2013-08-19 23:16:00,
2013-08-19 18:21:00,85.3,66.2,29.27,SSE,157,0.0,4.3,53,0.00,,,0.00,WUHU21623XXSP,2013-08-19 23:21:00,
2013-08-19 18:26:00,85.3,66.4,29.27,WSW,247,0.0,0.0,53,0.00,,,0.00,WUHU21623XXSP,2013-08-19 23:26:00,
2013-08-19 18:31:00,85.3,66.7,29.26,SSE,157,0.0,0.2,54,0.00,,,0.00,WUHU21623XXSP,2013-08-19 23:31:00,
2013-08-19 18:36:00,85.3,66.7,29.26,SSE,157,0.0,0.2,54,0.00,,,0.00,WUHU21623XXSP,2013-08-19 23:36:00,
2013-08-19 18:41:00,85.1,66.6,29.26,SE,135,0.0,0.0,54,0.00,,,0.00,WUHU21623XXSP,2013-08-19 23:41:00,
2013-08-19 18:46:00,84.9,66.4,29.26,SE,135,2.7,2.7,54,0.00,,,0.00,WUHU21623XXSP,2013-08-19 23:46:00,
2013-08-19 18:51:00,84.7,66.3,29.26,WSW,247,0.0,2.7,54,0.00,,,0.00,WUHU21623XXSP,2013-08-19 23:51:00,
2013-08-19 18:56:00,84.6,66.6,29.26,SSE,157,0.9,2.2,55,0.00,,,0.00,WUHU21623XXSP,2013-08-19 23:56:00,
2013-08-19 19:01:00,84.2,66.3,29.26,NNE,22,0.0,0.9,55,0.00,,,0.00,WUHU21623XXSP,2013-08-20 00:01:00,
2013-08-19 19:06:00,83.8,65.9,29.26,NE,45,0.0,0.0,55,0.00,,,0.00,WUHU21623XXSP,2013-08-20 00:06:00,
2013-08-19 19:11:00,83.3,65.9,29.26,SE,135,1.3,1.3,56,0.00,,,0.00,WUHU21623XXSP,2013-08-20 00:11:00,
2013-08-19 19:16:00,82.9,65.6,29.26,SE,135,2.0,2.0,56,0.00,,,0.00,WUHU21623XXSP,2013-08-20 00:16:00,
2013-08-19 19:21:00,82.6,65.2,29.26,SSE,157,0.0,2.0,56,0.00,,,0.00,WUHU21623XXSP,2013-08-20 00:21:00,
2013-08-19 19:26:00,82.2,65.4,29.26,SSE,157,0.0,0.2,57,0.00,,,0.00,WUHU21623XXSP,2013-08-20 00:26:00,
2013-08-19 19:31:00,82.0,65.2,29.26,SSE,157,0.0,0.2,57,0.00,,,0.00,WUHU21623XXSP,2013-08-20 00:31:00,
2013-08-19 19:36:00,81.7,64.9,29.26,SSE,157,0.0,0.0,57,0.00,,,0.00,WUHU21623XXSP,2013-08-20 00:36:00,
2013-08-19 19:41:00,81.3,65.1,29.26,SE,135,0.7,0.7,58,0.00,,,0.00,WUHU21623XXSP,2013-08-20 00:41:00,
2013-08-19 19:46:00,81.1,64.9,29.26,SE,135,1.3,1.3,58,0.00,,,0.00,WUHU21623XXSP,2013-08-20 00:46:00,
2013-08-19 19:51:00,80.8,64.6,29.26,SSE,157,0.0,1.3,58,0.00,,,0.00,WUHU21623XXSP,2013-08-20 00:51:00,
2013-08-19 19:56:00,80.4,64.8,29.26,SSE,157,0.0,2.2,59,0.00,,,0.00,WUHU21623XXSP,2013-08-20 00:56:00,
2013-08-19 20:01:00,80.2,64.6,29.26,SSE,157,2.0,2.2,59,0.00,,,0.00,WUHU21623XXSP,2013-08-20 01:01:00,
2013-08-19 20:06:00,79.9,64.8,29.26,SSE,157,3.1,3.1,60,0.00,,,0.00,WUHU21623XXSP,2013-08-20 01:06:00,
2013-08-19 20:11:00,79.5,64.5,29.27,SSE,157,0.0,3.1,60,0.00,,,0.00,WUHU21623XXSP,2013-08-20 01:11:00,
2013-08-19 20:16:00,79.3,64.8,29.27,SE,135,0.0,3.1,61,0.00,,,0.00,WUHU21623XXSP,2013-08-20 01:16:00,
2013-08-19 20:21:00,79.2,64.6,29.26,SE,135,0.0,1.3,61,0.00,,,0.00,WUHU21623XXSP,2013-08-20 01:21:00,
2013-08-19 20:26:00,78.6,64.5,29.25,SE,135,1.3,1.3,62,0.00,,,0.00,WUHU21623XXSP,2013-08-20 01:26:00,
2013-08-19 20:31:00,78.6,64.5,29.26,SE,135,0.0,1.3,62,0.00,,,0.00,WUHU21623XXSP,2013-08-20 01:31:00,
2013-08-19 20:36:00,78.4,64.4,29.26,SSE,157,3.1,3.1,62,0.00,,,0.00,WUHU21623XXSP,2013-08-20 01:36:00,
2013-08-19 20:41:00,78.1,64.0,29.26,SSE,157,0.0,3.1,62,0.00,,,0.00,WUHU21623XXSP,2013-08-20 01:41:00,
2013-08-19 20:46:00,78.1,64.5,29.27,SE,135,0.0,0.9,63,0.00,,,0.00,WUHU21623XXSP,2013-08-20 01:46:00,
2013-08-19 20:51:00,77.7,64.3,29.27,SSE,157,0.7,0.7,63,0.00,,,0.00,WUHU21623XXSP,2013-08-20 01:51:00,
2013-08-19 20:56:00,77.5,63.9,29.27,SSE,157,0.0,3.4,63,0.00,,,0.00,WUHU21623XXSP,2013-08-20 01:56:00,
2013-08-19 21:01:00,77.4,63.8,29.27,SSE,157,2.2,3.4,63,0.00,,,0.00,WUHU21623XXSP,2013-08-20 02:01:00,
2013-08-19 21:06:00,77.2,63.6,29.27,SSE,157,3.8,3.8,63,0.00,,,0.00,WUHU21623XXSP,2013-08-20 02:06:00,
2013-08-19 21:11:00,77.0,63.9,29.27,SE,135,0.7,3.8,64,0.00,,,0.00,WUHU21623XXSP,2013-08-20 02:11:00,
2013-08-19 21:16:00,76.8,63.7,29.28,SSE,157,0.0,3.8,64,0.00,,,0.00,WUHU21623XXSP,2013-08-20 02:16:00,
2013-08-19 21:21:00,76.8,63.7,29.28,South,180,4.0,4.0,64,0.00,,,0.00,WUHU21623XXSP,2013-08-20 02:21:00,
2013-08-19 21:26:00,76.6,64.1,29.28,SSE,157,0.0,4.0,65,0.00,,,0.00,WUHU21623XXSP,2013-08-20 02:26:00,
2013-08-19 21:31:00,76.5,63.8,29.28,South,180,3.1,3.1,65,0.00,,,0.00,WUHU21623XXSP,2013-08-20 02:31:00,
2013-08-19 21:36:00,76.3,63.8,29.28,SE,135,0.0,3.1,65,0.00,,,0.00,WUHU21623XXSP,2013-08-20 02:36:00,
2013-08-19 21:41:00,76.1,63.6,29.28,SSE,157,1.3,3.1,65,0.00,,,0.00,WUHU21623XXSP,2013-08-20 02:41:00,
2013-08-19 21:46:00,76.1,63.4,29.28,SE,135,1.6,3.1,66,0.00,,,0.00,WUHU21623XXSP,2013-08-20 02:46:00,
2013-08-19 21:51:00,75.9,63.7,29.27,SE,135,1.6,1.6,66,0.00,,,0.00,WUHU21623XXSP,2013-08-20 02:51:00,
2013-08-19 21:56:00,75.9,63.7,29.27,SSE,157,0.0,1.6,66,0.00,,,0.00,WUHU21623XXSP,2013-08-20 02:56:00,
2013-08-19 22:01:00,75.7,63.5,29.28,SE,135,0.7,0.7,66,0.00,,,0.00,WUHU21623XXSP,2013-08-20 03:01:00,
2013-08-19 22:06:00,75.7,63.5,29.28,SE,135,0.7,0.7,66,0.00,,,0.00,WUHU21623XXSP,2013-08-20 03:06:00,
2013-08-19 22:11:00,75.4,63.6,29.28,ESE,112,2.0,2.0,67,0.00,,,0.00,WUHU21623XXSP,2013-08-20 03:11:00,
2013-08-19 22:16:00,75.4,63.6,29.28,SE,135,0.0,2.0,67,0.00,,,0.00,WUHU21623XXSP,2013-08-20 03:16:00,
2013-08-19 22:21:00,75.2,63.5,29.28,SE,135,0.7,2.0,67,0.00,,,0.00,WUHU21623XXSP,2013-08-20 03:21:00,
2013-08-19 22:26:00,75.0,63.3,29.28,SE,135,0.0,2.5,67,0.00,,,0.00,WUHU21623XXSP,2013-08-20 03:26:00,
2013-08-19 22:31:00,75.0,63.3,29.28,SSE,157,1.3,2.5,67,0.00,,,0.00,WUHU21623XXSP,2013-08-20 03:31:00,
2013-08-19 22:36:00,74.8,63.1,29.28,SE,135,0.0,2.7,67,0.00,,,0.00,WUHU21623XXSP,2013-08-20 03:36:00,
2013-08-19 22:41:00,74.5,62.8,29.28,SSE,157,0.0,2.7,67,0.00,,,0.00,WUHU21623XXSP,2013-08-20 03:41:00,
2013-08-19 22:46:00,74.5,62.8,29.28,SE,135,1.3,1.3,67,0.00,,,0.00,WUHU21623XXSP,2013-08-20 03:46:00,
2013-08-19 22:51:00,74.3,63.1,29.28,SSE,157,0.0,1.3,68,0.00,,,0.00,WUHU21623XXSP,2013-08-20 03:51:00,
2013-08-19 22:56:00,74.1,62.9,29.27,SSE,157,1.8,1.8,68,0.00,,,0.00,WUHU21623XXSP,2013-08-20 03:56:00,
2013-08-19 23:01:00,74.1,62.9,29.27,SE,135,0.0,1.8,68,0.00,,,0.00,WUHU21623XXSP,2013-08-20 04:01:00,
2013-08-19 23:06:00,73.9,62.7,29.27,SSE,157,2.5,4.3,68,0.00,,,0.00,WUHU21623XXSP,2013-08-20 04:06:00,
2013-08-19 23:11:00,73.8,62.6,29.27,SSE,157,1.6,4.3,68,0.00,,,0.00,WUHU21623XXSP,2013-08-20 04:11:00,
2013-08-19 23:16:00,73.6,62.9,29.27,SSE,157,0.4,2.7,69,0.00,,,0.00,WUHU21623XXSP,2013-08-20 04:16:00,
2013-08-19 23:57:00,72.7,62.5,29.27,South,180,0.9,0.9,70,0.00,,,0.00,WUHU21623XXSP,2013-08-20 04:57:00,